sensor_id;sensor_type;location;lat;lon;timestamp;P1;durP1;ratioP1;P2;durP2;ratioP2
5923;SDS011;2987;50.884;14.818;2023-08-08T00:02:14;3.37;;;2.40;;
5923;SDS011;2987;50.884;14.818;2023-08-08T00:04:40;6.33;;;2.40;;
5923;SDS011;2987;50.884;14.818;2023-08-08T00:07:06;6.57;;;2.70;;
5923;SDS011;2987;50.884;14.818;2023-08-08T00:09:32;3.50;;;2.00;;
5923;SDS011;2987;50.884;14.818;2023-08-08T00:11:58;3.80;;;2.63;;
5923;SDS011;2987;50.884;14.818;2023-08-08T00:14:25;5.13;;;2.30;;
5923;SDS011;2987;50.884;14.818;2023-08-08T00:16:50;10.10;;;2.73;;
5923;SDS011;2987;50.884;14.818;2023-08-08T00:19:17;5.40;;;2.43;;
5923;SDS011;2987;50.884;14.818;2023-08-08T00:21:43;4.97;;;2.60;;
5923;SDS011;2987;50.884;14.818;2023-08-08T00:24:09;6.30;;;2.80;;
5923;SDS011;2987;50.884;14.818;2023-08-08T00:26:35;7.60;;;2.53;;
5923;SDS011;2987;50.884;14.818;2023-08-08T00:29:01;4.60;;;2.20;;
5923;SDS011;2987;50.884;14.818;2023-08-08T00:31:27;9.13;;;2.70;;
5923;SDS011;2987;50.884;14.818;2023-08-08T00:33:52;3.70;;;2.13;;
5923;SDS011;2987;50.884;14.818;2023-08-08T00:36:18;4.87;;;2.50;;
5923;SDS011;2987;50.884;14.818;2023-08-08T00:38:44;8.67;;;2.47;;
5923;SDS011;2987;50.884;14.818;2023-08-08T00:41:11;6.17;;;2.70;;
5923;SDS011;2987;50.884;14.818;2023-08-08T00:43:37;6.80;;;2.20;;
5923;SDS011;2987;50.884;14.818;2023-08-08T00:46:04;7.77;;;2.23;;
5923;SDS011;2987;50.884;14.818;2023-08-08T00:48:30;8.33;;;2.80;;
5923;SDS011;2987;50.884;14.818;2023-08-08T00:50:57;8.70;;;2.90;;
5923;SDS011;2987;50.884;14.818;2023-08-08T00:53:25;5.97;;;2.93;;
5923;SDS011;2987;50.884;14.818;2023-08-08T00:55:53;6.90;;;2.50;;
5923;SDS011;2987;50.884;14.818;2023-08-08T00:58:20;3.27;;;2.20;;
5923;SDS011;2987;50.884;14.818;2023-08-08T01:00:46;5.70;;;2.70;;
5923;SDS011;2987;50.884;14.818;2023-08-08T01:03:12;3.50;;;2.33;;
5923;SDS011;2987;50.884;14.818;2023-08-08T01:05:41;5.70;;;2.67;;
5923;SDS011;2987;50.884;14.818;2023-08-08T01:08:13;7.33;;;2.57;;
5923;SDS011;2987;50.884;14.818;2023-08-08T01:10:43;4.20;;;2.07;;
5923;SDS011;2987;50.884;14.818;2023-08-08T01:13:10;4.03;;;2.20;;
5923;SDS011;2987;50.884;14.818;2023-08-08T01:15:42;4.43;;;2.10;;
5923;SDS011;2987;50.884;14.818;2023-08-08T01:18:09;4.37;;;2.30;;
5923;SDS011;2987;50.884;14.818;2023-08-08T01:20:36;5.93;;;2.40;;
5923;SDS011;2987;50.884;14.818;2023-08-08T01:26:10;5.67;;;2.50;;
5923;SDS011;2987;50.884;14.818;2023-08-08T01:33:29;7.47;;;2.67;;
5923;SDS011;2987;50.884;14.818;2023-08-08T01:35:57;4.87;;;2.17;;
5923;SDS011;2987;50.884;14.818;2023-08-08T01:38:32;5.37;;;2.43;;
5923;SDS011;2987;50.884;14.818;2023-08-08T01:41:02;6.13;;;2.37;;
5923;SDS011;2987;50.884;14.818;2023-08-08T01:43:30;5.60;;;2.27;;
5923;SDS011;2987;50.884;14.818;2023-08-08T01:45:58;3.90;;;2.30;;
5923;SDS011;2987;50.884;14.818;2023-08-08T01:48:25;8.20;;;2.63;;
5923;SDS011;2987;50.884;14.818;2023-08-08T01:50:53;8.77;;;2.53;;
5923;SDS011;2987;50.884;14.818;2023-08-08T01:53:19;4.87;;;2.80;;
5923;SDS011;2987;50.884;14.818;2023-08-08T01:55:45;4.23;;;2.40;;
5923;SDS011;2987;50.884;14.818;2023-08-08T01:58:11;5.60;;;2.33;;
5923;SDS011;2987;50.884;14.818;2023-08-08T02:00:37;5.40;;;2.40;;
5923;SDS011;2987;50.884;14.818;2023-08-08T02:03:03;4.17;;;2.90;;
5923;SDS011;2987;50.884;14.818;2023-08-08T02:05:29;5.63;;;2.57;;
5923;SDS011;2987;50.884;14.818;2023-08-08T02:07:56;3.30;;;2.57;;
5923;SDS011;2987;50.884;14.818;2023-08-08T02:10:22;6.23;;;2.63;;
5923;SDS011;2987;50.884;14.818;2023-08-08T02:12:48;4.50;;;2.53;;
5923;SDS011;2987;50.884;14.818;2023-08-08T02:15:14;4.70;;;2.67;;
5923;SDS011;2987;50.884;14.818;2023-08-08T02:17:40;7.10;;;2.90;;
5923;SDS011;2987;50.884;14.818;2023-08-08T02:20:06;10.00;;;3.50;;
5923;SDS011;2987;50.884;14.818;2023-08-08T02:22:33;6.60;;;2.80;;
5923;SDS011;2987;50.884;14.818;2023-08-08T02:24:59;4.70;;;2.60;;
5923;SDS011;2987;50.884;14.818;2023-08-08T02:27:25;11.27;;;2.93;;
5923;SDS011;2987;50.884;14.818;2023-08-08T02:29:51;5.27;;;2.63;;
5923;SDS011;2987;50.884;14.818;2023-08-08T02:32:17;7.33;;;3.17;;
5923;SDS011;2987;50.884;14.818;2023-08-08T02:34:43;6.17;;;2.93;;
5923;SDS011;2987;50.884;14.818;2023-08-08T02:37:09;4.87;;;2.30;;
5923;SDS011;2987;50.884;14.818;2023-08-08T02:39:35;7.03;;;2.90;;
5923;SDS011;2987;50.884;14.818;2023-08-08T02:42:01;8.43;;;2.90;;
5923;SDS011;2987;50.884;14.818;2023-08-08T02:44:28;3.50;;;2.30;;
5923;SDS011;2987;50.884;14.818;2023-08-08T02:46:54;4.40;;;2.30;;
5923;SDS011;2987;50.884;14.818;2023-08-08T02:49:20;6.77;;;2.63;;
5923;SDS011;2987;50.884;14.818;2023-08-08T02:51:46;3.30;;;2.10;;
5923;SDS011;2987;50.884;14.818;2023-08-08T02:54:13;6.17;;;2.50;;
5923;SDS011;2987;50.884;14.818;2023-08-08T02:56:41;5.80;;;2.57;;
5923;SDS011;2987;50.884;14.818;2023-08-08T02:59:08;8.77;;;2.60;;
5923;SDS011;2987;50.884;14.818;2023-08-08T03:01:34;4.83;;;2.20;;
5923;SDS011;2987;50.884;14.818;2023-08-08T03:04:07;8.93;;;2.77;;
5923;SDS011;2987;50.884;14.818;2023-08-08T03:06:34;5.67;;;2.60;;
5923;SDS011;2987;50.884;14.818;2023-08-08T03:09:00;5.03;;;2.60;;
5923;SDS011;2987;50.884;14.818;2023-08-08T03:11:26;5.93;;;2.70;;
5923;SDS011;2987;50.884;14.818;2023-08-08T03:13:52;5.37;;;2.60;;
5923;SDS011;2987;50.884;14.818;2023-08-08T03:16:18;4.57;;;2.40;;
5923;SDS011;2987;50.884;14.818;2023-08-08T03:18:44;5.27;;;2.60;;
5923;SDS011;2987;50.884;14.818;2023-08-08T03:21:10;6.40;;;2.70;;
5923;SDS011;2987;50.884;14.818;2023-08-08T03:23:37;8.13;;;2.63;;
5923;SDS011;2987;50.884;14.818;2023-08-08T03:26:03;5.07;;;2.60;;
5923;SDS011;2987;50.884;14.818;2023-08-08T03:28:29;3.83;;;2.50;;
5923;SDS011;2987;50.884;14.818;2023-08-08T03:30:57;4.83;;;2.80;;
5923;SDS011;2987;50.884;14.818;2023-08-08T03:33:23;4.53;;;2.60;;
5923;SDS011;2987;50.884;14.818;2023-08-08T03:35:49;8.13;;;2.80;;
5923;SDS011;2987;50.884;14.818;2023-08-08T03:38:16;3.93;;;2.70;;
5923;SDS011;2987;50.884;14.818;2023-08-08T03:40:42;4.83;;;2.60;;
5923;SDS011;2987;50.884;14.818;2023-08-08T03:43:08;4.40;;;2.63;;
5923;SDS011;2987;50.884;14.818;2023-08-08T03:45:34;4.67;;;2.57;;
5923;SDS011;2987;50.884;14.818;2023-08-08T03:48:01;6.70;;;2.33;;
5923;SDS011;2987;50.884;14.818;2023-08-08T03:50:28;6.10;;;2.70;;
5923;SDS011;2987;50.884;14.818;2023-08-08T03:52:55;12.53;;;3.43;;
5923;SDS011;2987;50.884;14.818;2023-08-08T03:55:22;4.27;;;2.47;;
5923;SDS011;2987;50.884;14.818;2023-08-08T03:57:49;5.20;;;2.43;;
5923;SDS011;2987;50.884;14.818;2023-08-08T04:00:15;7.43;;;3.10;;
5923;SDS011;2987;50.884;14.818;2023-08-08T04:02:42;6.90;;;2.70;;
5923;SDS011;2987;50.884;14.818;2023-08-08T04:05:09;5.00;;;3.10;;
5923;SDS011;2987;50.884;14.818;2023-08-08T04:07:35;7.30;;;2.90;;
5923;SDS011;2987;50.884;14.818;2023-08-08T04:10:01;11.20;;;3.33;;
5923;SDS011;2987;50.884;14.818;2023-08-08T04:12:29;3.03;;;2.73;;
5923;SDS011;2987;50.884;14.818;2023-08-08T04:14:59;4.77;;;2.97;;
5923;SDS011;2987;50.884;14.818;2023-08-08T04:17:25;7.53;;;3.03;;
5923;SDS011;2987;50.884;14.818;2023-08-08T04:19:51;4.83;;;3.17;;
5923;SDS011;2987;50.884;14.818;2023-08-08T04:22:17;8.53;;;3.50;;
5923;SDS011;2987;50.884;14.818;2023-08-08T04:24:43;5.40;;;3.33;;
5923;SDS011;2987;50.884;14.818;2023-08-08T04:27:09;8.77;;;3.50;;
5923;SDS011;2987;50.884;14.818;2023-08-08T04:29:36;4.80;;;3.40;;
5923;SDS011;2987;50.884;14.818;2023-08-08T04:32:02;5.87;;;3.57;;
5923;SDS011;2987;50.884;14.818;2023-08-08T04:34:28;8.43;;;3.50;;
5923;SDS011;2987;50.884;14.818;2023-08-08T04:36:54;6.00;;;3.23;;
5923;SDS011;2987;50.884;14.818;2023-08-08T04:39:20;7.77;;;2.97;;
5923;SDS011;2987;50.884;14.818;2023-08-08T04:41:46;6.43;;;3.63;;
5923;SDS011;2987;50.884;14.818;2023-08-08T04:44:12;7.00;;;3.80;;
5923;SDS011;2987;50.884;14.818;2023-08-08T04:46:38;7.10;;;3.30;;
5923;SDS011;2987;50.884;14.818;2023-08-08T04:49:04;4.80;;;3.70;;
5923;SDS011;2987;50.884;14.818;2023-08-08T04:51:30;6.20;;;3.50;;
5923;SDS011;2987;50.884;14.818;2023-08-08T04:53:56;8.03;;;3.77;;
5923;SDS011;2987;50.884;14.818;2023-08-08T04:56:22;5.07;;;3.33;;
5923;SDS011;2987;50.884;14.818;2023-08-08T04:58:48;7.03;;;4.10;;
5923;SDS011;2987;50.884;14.818;2023-08-08T05:01:14;5.67;;;3.40;;
5923;SDS011;2987;50.884;14.818;2023-08-08T05:03:43;7.13;;;3.60;;
5923;SDS011;2987;50.884;14.818;2023-08-08T05:06:09;5.90;;;3.27;;
5923;SDS011;2987;50.884;14.818;2023-08-08T05:08:35;8.50;;;3.40;;
5923;SDS011;2987;50.884;14.818;2023-08-08T05:11:01;6.47;;;3.40;;
5923;SDS011;2987;50.884;14.818;2023-08-08T05:13:27;6.77;;;3.20;;
5923;SDS011;2987;50.884;14.818;2023-08-08T05:18:19;3.90;;;2.70;;
5923;SDS011;2987;50.884;14.818;2023-08-08T05:20:45;6.87;;;2.73;;
5923;SDS011;2987;50.884;14.818;2023-08-08T05:23:11;5.97;;;2.83;;
5923;SDS011;2987;50.884;14.818;2023-08-08T05:25:37;5.20;;;2.80;;
5923;SDS011;2987;50.884;14.818;2023-08-08T05:28:03;5.00;;;2.83;;
5923;SDS011;2987;50.884;14.818;2023-08-08T05:30:29;3.90;;;2.33;;
5923;SDS011;2987;50.884;14.818;2023-08-08T05:32:55;3.07;;;2.60;;
5923;SDS011;2987;50.884;14.818;2023-08-08T05:35:21;5.83;;;2.60;;
5923;SDS011;2987;50.884;14.818;2023-08-08T05:37:47;7.50;;;2.37;;
5923;SDS011;2987;50.884;14.818;2023-08-08T05:40:13;5.77;;;2.47;;
5923;SDS011;2987;50.884;14.818;2023-08-08T05:42:39;6.97;;;2.90;;
5923;SDS011;2987;50.884;14.818;2023-08-08T05:45:05;4.80;;;2.77;;
5923;SDS011;2987;50.884;14.818;2023-08-08T05:47:32;4.77;;;2.83;;
5923;SDS011;2987;50.884;14.818;2023-08-08T05:49:58;5.83;;;2.60;;
5923;SDS011;2987;50.884;14.818;2023-08-08T05:54:50;4.57;;;2.60;;
5923;SDS011;2987;50.884;14.818;2023-08-08T05:57:16;4.27;;;3.00;;
5923;SDS011;2987;50.884;14.818;2023-08-08T05:59:42;6.53;;;2.60;;
5923;SDS011;2987;50.884;14.818;2023-08-08T06:02:10;6.27;;;2.47;;
5923;SDS011;2987;50.884;14.818;2023-08-08T06:04:36;4.90;;;2.40;;
5923;SDS011;2987;50.884;14.818;2023-08-08T06:07:03;5.10;;;2.60;;
5923;SDS011;2987;50.884;14.818;2023-08-08T06:09:29;4.10;;;2.40;;
5923;SDS011;2987;50.884;14.818;2023-08-08T06:11:56;7.10;;;2.67;;
5923;SDS011;2987;50.884;14.818;2023-08-08T06:14:22;5.07;;;2.40;;
5923;SDS011;2987;50.884;14.818;2023-08-08T06:16:48;5.70;;;2.33;;
5923;SDS011;2987;50.884;14.818;2023-08-08T06:19:14;4.00;;;2.47;;
5923;SDS011;2987;50.884;14.818;2023-08-08T06:21:41;4.43;;;2.67;;
5923;SDS011;2987;50.884;14.818;2023-08-08T06:24:07;8.00;;;2.73;;
5923;SDS011;2987;50.884;14.818;2023-08-08T06:26:33;5.30;;;2.83;;
5923;SDS011;2987;50.884;14.818;2023-08-08T06:28:59;3.10;;;2.13;;
5923;SDS011;2987;50.884;14.818;2023-08-08T06:31:25;10.73;;;1.90;;
5923;SDS011;2987;50.884;14.818;2023-08-08T06:33:51;3.03;;;1.93;;
5923;SDS011;2987;50.884;14.818;2023-08-08T06:36:17;4.70;;;2.33;;
5923;SDS011;2987;50.884;14.818;2023-08-08T06:38:43;5.00;;;2.30;;
5923;SDS011;2987;50.884;14.818;2023-08-08T06:41:09;4.30;;;2.30;;
5923;SDS011;2987;50.884;14.818;2023-08-08T06:43:35;3.67;;;2.23;;
5923;SDS011;2987;50.884;14.818;2023-08-08T06:46:02;9.00;;;2.37;;
5923;SDS011;2987;50.884;14.818;2023-08-08T06:48:28;2.77;;;2.07;;
5923;SDS011;2987;50.884;14.818;2023-08-08T06:50:54;5.23;;;2.10;;
5923;SDS011;2987;50.884;14.818;2023-08-08T06:53:20;12.27;;;2.73;;
5923;SDS011;2987;50.884;14.818;2023-08-08T06:55:46;6.00;;;2.20;;
5923;SDS011;2987;50.884;14.818;2023-08-08T06:58:12;2.77;;;2.37;;
5923;SDS011;2987;50.884;14.818;2023-08-08T07:00:38;2.53;;;2.00;;
5923;SDS011;2987;50.884;14.818;2023-08-08T07:03:04;9.77;;;2.20;;
5923;SDS011;2987;50.884;14.818;2023-08-08T07:05:32;4.43;;;2.10;;
5923;SDS011;2987;50.884;14.818;2023-08-08T07:07:58;3.67;;;2.10;;
5923;SDS011;2987;50.884;14.818;2023-08-08T07:10:24;2.43;;;1.77;;
5923;SDS011;2987;50.884;14.818;2023-08-08T07:12:50;3.43;;;2.13;;
5923;SDS011;2987;50.884;14.818;2023-08-08T07:15:16;3.73;;;1.97;;
5923;SDS011;2987;50.884;14.818;2023-08-08T07:17:41;3.70;;;2.07;;
5923;SDS011;2987;50.884;14.818;2023-08-08T07:20:08;4.90;;;1.87;;
5923;SDS011;2987;50.884;14.818;2023-08-08T07:22:34;3.20;;;2.07;;
5923;SDS011;2987;50.884;14.818;2023-08-08T07:25:01;2.30;;;2.10;;
5923;SDS011;2987;50.884;14.818;2023-08-08T07:27:27;3.40;;;2.57;;
5923;SDS011;2987;50.884;14.818;2023-08-08T07:29:53;2.60;;;2.17;;
5923;SDS011;2987;50.884;14.818;2023-08-08T07:32:19;9.30;;;2.60;;
5923;SDS011;2987;50.884;14.818;2023-08-08T07:34:46;4.10;;;2.20;;
5923;SDS011;2987;50.884;14.818;2023-08-08T07:37:11;4.30;;;2.23;;
5923;SDS011;2987;50.884;14.818;2023-08-08T07:39:39;3.13;;;2.07;;
5923;SDS011;2987;50.884;14.818;2023-08-08T07:42:05;2.40;;;2.17;;
5923;SDS011;2987;50.884;14.818;2023-08-08T07:44:32;4.27;;;2.40;;
5923;SDS011;2987;50.884;14.818;2023-08-08T07:47:00;2.77;;;2.27;;
5923;SDS011;2987;50.884;14.818;2023-08-08T07:49:26;3.93;;;2.03;;
5923;SDS011;2987;50.884;14.818;2023-08-08T07:51:52;2.97;;;2.00;;
5923;SDS011;2987;50.884;14.818;2023-08-08T07:54:18;3.60;;;2.40;;
5923;SDS011;2987;50.884;14.818;2023-08-08T07:56:44;4.30;;;1.77;;
5923;SDS011;2987;50.884;14.818;2023-08-08T07:59:10;3.57;;;2.47;;
5923;SDS011;2987;50.884;14.818;2023-08-08T08:01:36;4.20;;;2.07;;
5923;SDS011;2987;50.884;14.818;2023-08-08T08:04:02;5.13;;;2.23;;
5923;SDS011;2987;50.884;14.818;2023-08-08T08:06:28;3.90;;;2.70;;
5923;SDS011;2987;50.884;14.818;2023-08-08T08:08:55;2.87;;;2.30;;
5923;SDS011;2987;50.884;14.818;2023-08-08T08:11:21;2.03;;;1.90;;
5923;SDS011;2987;50.884;14.818;2023-08-08T08:13:47;3.50;;;2.50;;
5923;SDS011;2987;50.884;14.818;2023-08-08T08:16:13;5.70;;;2.57;;
5923;SDS011;2987;50.884;14.818;2023-08-08T08:18:40;6.37;;;2.57;;
5923;SDS011;2987;50.884;14.818;2023-08-08T08:21:06;4.87;;;2.53;;
5923;SDS011;2987;50.884;14.818;2023-08-08T08:23:32;9.43;;;2.50;;
5923;SDS011;2987;50.884;14.818;2023-08-08T08:25:58;8.53;;;2.90;;
5923;SDS011;2987;50.884;14.818;2023-08-08T08:28:25;6.80;;;2.27;;
5923;SDS011;2987;50.884;14.818;2023-08-08T08:30:52;5.77;;;2.73;;
5923;SDS011;2987;50.884;14.818;2023-08-08T08:33:18;4.60;;;2.37;;
5923;SDS011;2987;50.884;14.818;2023-08-08T08:35:44;5.17;;;2.30;;
5923;SDS011;2987;50.884;14.818;2023-08-08T08:38:11;4.03;;;2.40;;
5923;SDS011;2987;50.884;14.818;2023-08-08T08:40:40;4.40;;;2.53;;
5923;SDS011;2987;50.884;14.818;2023-08-08T08:43:09;4.13;;;2.50;;
5923;SDS011;2987;50.884;14.818;2023-08-08T08:45:37;3.80;;;2.13;;
5923;SDS011;2987;50.884;14.818;2023-08-08T08:48:06;8.87;;;2.87;;
5923;SDS011;2987;50.884;14.818;2023-08-08T08:50:35;4.00;;;2.17;;
5923;SDS011;2987;50.884;14.818;2023-08-08T08:53:04;5.40;;;2.50;;
5923;SDS011;2987;50.884;14.818;2023-08-08T08:55:31;2.70;;;2.40;;
5923;SDS011;2987;50.884;14.818;2023-08-08T08:57:57;2.40;;;2.10;;
5923;SDS011;2987;50.884;14.818;2023-08-08T09:00:23;4.83;;;2.50;;
5923;SDS011;2987;50.884;14.818;2023-08-08T09:02:51;6.27;;;2.10;;
5923;SDS011;2987;50.884;14.818;2023-08-08T09:05:20;4.70;;;2.53;;
5923;SDS011;2987;50.884;14.818;2023-08-08T09:07:47;3.60;;;2.10;;
5923;SDS011;2987;50.884;14.818;2023-08-08T09:10:15;2.63;;;2.30;;
5923;SDS011;2987;50.884;14.818;2023-08-08T09:12:42;4.07;;;2.77;;
5923;SDS011;2987;50.884;14.818;2023-08-08T09:15:08;5.63;;;2.10;;
5923;SDS011;2987;50.884;14.818;2023-08-08T09:17:35;6.10;;;2.67;;
5923;SDS011;2987;50.884;14.818;2023-08-08T09:20:02;6.73;;;2.80;;
5923;SDS011;2987;50.884;14.818;2023-08-08T09:22:31;5.40;;;2.63;;
5923;SDS011;2987;50.884;14.818;2023-08-08T09:24:56;3.53;;;2.40;;
5923;SDS011;2987;50.884;14.818;2023-08-08T09:27:22;5.47;;;2.90;;
5923;SDS011;2987;50.884;14.818;2023-08-08T09:29:48;2.30;;;2.10;;
5923;SDS011;2987;50.884;14.818;2023-08-08T09:32:15;4.03;;;2.20;;
5923;SDS011;2987;50.884;14.818;2023-08-08T09:34:43;3.60;;;1.90;;
5923;SDS011;2987;50.884;14.818;2023-08-08T09:37:09;3.13;;;2.20;;
5923;SDS011;2987;50.884;14.818;2023-08-08T09:39:36;2.80;;;1.90;;
5923;SDS011;2987;50.884;14.818;2023-08-08T09:42:03;5.30;;;2.00;;
5923;SDS011;2987;50.884;14.818;2023-08-08T09:44:30;2.90;;;2.10;;
5923;SDS011;2987;50.884;14.818;2023-08-08T09:46:57;2.53;;;2.07;;
5923;SDS011;2987;50.884;14.818;2023-08-08T09:49:25;3.53;;;2.33;;
5923;SDS011;2987;50.884;14.818;2023-08-08T09:51:52;3.00;;;2.20;;
5923;SDS011;2987;50.884;14.818;2023-08-08T09:54:19;4.93;;;2.37;;
5923;SDS011;2987;50.884;14.818;2023-08-08T09:56:47;2.43;;;1.70;;
5923;SDS011;2987;50.884;14.818;2023-08-08T09:59:16;2.63;;;1.93;;
5923;SDS011;2987;50.884;14.818;2023-08-08T10:01:43;3.33;;;2.30;;
5923;SDS011;2987;50.884;14.818;2023-08-08T10:04:12;3.27;;;1.90;;
5923;SDS011;2987;50.884;14.818;2023-08-08T10:06:38;3.47;;;2.23;;
5923;SDS011;2987;50.884;14.818;2023-08-08T10:09:05;2.00;;;1.90;;
5923;SDS011;2987;50.884;14.818;2023-08-08T10:11:31;2.90;;;2.20;;
5923;SDS011;2987;50.884;14.818;2023-08-08T10:14:01;4.20;;;2.20;;
5923;SDS011;2987;50.884;14.818;2023-08-08T10:16:31;3.80;;;1.87;;
5923;SDS011;2987;50.884;14.818;2023-08-08T10:18:59;4.30;;;2.13;;
5923;SDS011;2987;50.884;14.818;2023-08-08T10:21:27;5.17;;;1.93;;
5923;SDS011;2987;50.884;14.818;2023-08-08T10:24:01;2.73;;;1.97;;
5923;SDS011;2987;50.884;14.818;2023-08-08T10:26:29;6.30;;;2.00;;
5923;SDS011;2987;50.884;14.818;2023-08-08T10:28:56;2.63;;;2.17;;
5923;SDS011;2987;50.884;14.818;2023-08-08T10:31:23;2.73;;;2.00;;
5923;SDS011;2987;50.884;14.818;2023-08-08T10:33:50;2.63;;;1.93;;
5923;SDS011;2987;50.884;14.818;2023-08-08T10:36:42;3.60;;;2.10;;
5923;SDS011;2987;50.884;14.818;2023-08-08T10:39:10;6.20;;;2.23;;
5923;SDS011;2987;50.884;14.818;2023-08-08T10:41:45;2.90;;;1.83;;
5923;SDS011;2987;50.884;14.818;2023-08-08T10:44:13;6.20;;;2.17;;
5923;SDS011;2987;50.884;14.818;2023-08-08T10:46:47;3.60;;;1.77;;
5923;SDS011;2987;50.884;14.818;2023-08-08T10:49:13;4.77;;;1.97;;
5923;SDS011;2987;50.884;14.818;2023-08-08T10:51:41;5.27;;;1.80;;
5923;SDS011;2987;50.884;14.818;2023-08-08T10:54:17;2.20;;;1.80;;
5923;SDS011;2987;50.884;14.818;2023-08-08T10:56:47;5.13;;;2.10;;
5923;SDS011;2987;50.884;14.818;2023-08-08T10:59:19;2.73;;;1.80;;
5923;SDS011;2987;50.884;14.818;2023-08-08T11:01:49;2.60;;;1.80;;
5923;SDS011;2987;50.884;14.818;2023-08-08T11:04:18;5.90;;;2.00;;
5923;SDS011;2987;50.884;14.818;2023-08-08T11:06:46;7.13;;;2.00;;
5923;SDS011;2987;50.884;14.818;2023-08-08T11:09:14;4.13;;;2.07;;
5923;SDS011;2987;50.884;14.818;2023-08-08T11:11:42;4.13;;;1.70;;
5923;SDS011;2987;50.884;14.818;2023-08-08T11:14:09;2.77;;;1.83;;
5923;SDS011;2987;50.884;14.818;2023-08-08T11:16:40;2.97;;;1.77;;
5923;SDS011;2987;50.884;14.818;2023-08-08T11:19:10;4.27;;;1.83;;
5923;SDS011;2987;50.884;14.818;2023-08-08T11:21:40;2.20;;;1.70;;
5923;SDS011;2987;50.884;14.818;2023-08-08T11:24:07;4.13;;;1.60;;
5923;SDS011;2987;50.884;14.818;2023-08-08T11:26:35;4.37;;;1.93;;
5923;SDS011;2987;50.884;14.818;2023-08-08T11:29:02;5.77;;;2.07;;
5923;SDS011;2987;50.884;14.818;2023-08-08T11:31:31;3.40;;;1.80;;
5923;SDS011;2987;50.884;14.818;2023-08-08T11:33:59;6.07;;;1.90;;
5923;SDS011;2987;50.884;14.818;2023-08-08T11:36:29;4.03;;;1.93;;
5923;SDS011;2987;50.884;14.818;2023-08-08T11:38:57;2.77;;;1.90;;
5923;SDS011;2987;50.884;14.818;2023-08-08T11:41:25;2.30;;;1.60;;
5923;SDS011;2987;50.884;14.818;2023-08-08T11:43:51;5.10;;;1.60;;
5923;SDS011;2987;50.884;14.818;2023-08-08T11:46:18;2.33;;;1.83;;
5923;SDS011;2987;50.884;14.818;2023-08-08T11:48:50;4.53;;;1.80;;
5923;SDS011;2987;50.884;14.818;2023-08-08T11:51:16;3.20;;;2.17;;
5923;SDS011;2987;50.884;14.818;2023-08-08T11:53:50;2.43;;;1.57;;
5923;SDS011;2987;50.884;14.818;2023-08-08T11:56:17;2.57;;;1.70;;
5923;SDS011;2987;50.884;14.818;2023-08-08T11:58:46;2.87;;;1.90;;
5923;SDS011;2987;50.884;14.818;2023-08-08T12:01:16;2.10;;;1.30;;
5923;SDS011;2987;50.884;14.818;2023-08-08T12:03:45;2.87;;;1.87;;
5923;SDS011;2987;50.884;14.818;2023-08-08T12:06:12;3.47;;;1.97;;
5923;SDS011;2987;50.884;14.818;2023-08-08T12:08:40;2.50;;;1.80;;
5923;SDS011;2987;50.884;14.818;2023-08-08T12:11:08;9.00;;;1.97;;
5923;SDS011;2987;50.884;14.818;2023-08-08T12:13:35;2.47;;;1.83;;
5923;SDS011;2987;50.884;14.818;2023-08-08T12:16:06;3.80;;;1.70;;
5923;SDS011;2987;50.884;14.818;2023-08-08T12:18:34;2.07;;;1.60;;
5923;SDS011;2987;50.884;14.818;2023-08-08T12:21:04;1.97;;;1.60;;
5923;SDS011;2987;50.884;14.818;2023-08-08T12:23:30;2.47;;;1.67;;
5923;SDS011;2987;50.884;14.818;2023-08-08T12:25:57;2.03;;;1.70;;
5923;SDS011;2987;50.884;14.818;2023-08-08T12:28:24;3.83;;;1.70;;
5923;SDS011;2987;50.884;14.818;2023-08-08T12:30:51;2.43;;;1.67;;
5923;SDS011;2987;50.884;14.818;2023-08-08T12:33:17;4.40;;;1.70;;
5923;SDS011;2987;50.884;14.818;2023-08-08T12:35:43;1.37;;;1.20;;
5923;SDS011;2987;50.884;14.818;2023-08-08T12:38:09;1.83;;;1.50;;
5923;SDS011;2987;50.884;14.818;2023-08-08T12:40:35;2.90;;;1.60;;
5923;SDS011;2987;50.884;14.818;2023-08-08T12:43:02;3.63;;;1.70;;
5923;SDS011;2987;50.884;14.818;2023-08-08T12:45:27;3.13;;;1.63;;
5923;SDS011;2987;50.884;14.818;2023-08-08T12:47:53;2.00;;;1.77;;
5923;SDS011;2987;50.884;14.818;2023-08-08T12:50:19;5.13;;;1.67;;
5923;SDS011;2987;50.884;14.818;2023-08-08T12:52:45;2.13;;;1.70;;
5923;SDS011;2987;50.884;14.818;2023-08-08T12:55:11;2.10;;;1.40;;
5923;SDS011;2987;50.884;14.818;2023-08-08T13:00:04;2.70;;;1.33;;
5923;SDS011;2987;50.884;14.818;2023-08-08T13:02:32;1.60;;;1.50;;
5923;SDS011;2987;50.884;14.818;2023-08-08T13:04:59;2.47;;;1.33;;
5923;SDS011;2987;50.884;14.818;2023-08-08T13:07:25;1.80;;;1.30;;
5923;SDS011;2987;50.884;14.818;2023-08-08T13:09:51;1.87;;;1.30;;
5923;SDS011;2987;50.884;14.818;2023-08-08T13:12:17;1.80;;;1.70;;
5923;SDS011;2987;50.884;14.818;2023-08-08T13:14:43;3.73;;;1.30;;
5923;SDS011;2987;50.884;14.818;2023-08-08T13:17:09;1.50;;;1.40;;
5923;SDS011;2987;50.884;14.818;2023-08-08T13:19:35;1.47;;;1.37;;
5923;SDS011;2987;50.884;14.818;2023-08-08T13:22:01;1.30;;;1.10;;
5923;SDS011;2987;50.884;14.818;2023-08-08T13:24:28;4.87;;;1.30;;
5923;SDS011;2987;50.884;14.818;2023-08-08T13:26:54;2.20;;;1.30;;
5923;SDS011;2987;50.884;14.818;2023-08-08T13:29:20;1.60;;;1.40;;
5923;SDS011;2987;50.884;14.818;2023-08-08T13:31:46;1.47;;;1.37;;
5923;SDS011;2987;50.884;14.818;2023-08-08T13:34:12;3.07;;;1.37;;
5923;SDS011;2987;50.884;14.818;2023-08-08T13:36:38;4.70;;;1.20;;
5923;SDS011;2987;50.884;14.818;2023-08-08T13:39:04;2.13;;;1.03;;
5923;SDS011;2987;50.884;14.818;2023-08-08T13:41:30;4.67;;;1.30;;
5923;SDS011;2987;50.884;14.818;2023-08-08T13:43:56;3.77;;;1.47;;
5923;SDS011;2987;50.884;14.818;2023-08-08T13:46:22;1.17;;;1.07;;
5923;SDS011;2987;50.884;14.818;2023-08-08T13:48:48;1.10;;;1.10;;
5923;SDS011;2987;50.884;14.818;2023-08-08T13:51:14;1.73;;;0.97;;
5923;SDS011;2987;50.884;14.818;2023-08-08T13:53:40;1.10;;;1.00;;
5923;SDS011;2987;50.884;14.818;2023-08-08T13:56:06;1.10;;;1.10;;
5923;SDS011;2987;50.884;14.818;2023-08-08T13:58:32;1.47;;;1.10;;
5923;SDS011;2987;50.884;14.818;2023-08-08T14:00:58;1.10;;;1.00;;
5923;SDS011;2987;50.884;14.818;2023-08-08T14:03:24;1.97;;;1.23;;
5923;SDS011;2987;50.884;14.818;2023-08-08T14:05:50;1.40;;;1.07;;
5923;SDS011;2987;50.884;14.818;2023-08-08T14:08:18;3.00;;;1.23;;
5923;SDS011;2987;50.884;14.818;2023-08-08T14:10:45;1.80;;;1.17;;
5923;SDS011;2987;50.884;14.818;2023-08-08T14:13:11;1.40;;;1.30;;
5923;SDS011;2987;50.884;14.818;2023-08-08T14:15:38;2.40;;;1.27;;
5923;SDS011;2987;50.884;14.818;2023-08-08T14:18:06;2.90;;;1.30;;
5923;SDS011;2987;50.884;14.818;2023-08-08T14:20:32;2.93;;;1.30;;
5923;SDS011;2987;50.884;14.818;2023-08-08T14:22:58;2.47;;;1.30;;
5923;SDS011;2987;50.884;14.818;2023-08-08T14:25:24;3.07;;;1.30;;
5923;SDS011;2987;50.884;14.818;2023-08-08T14:27:50;2.17;;;1.40;;
5923;SDS011;2987;50.884;14.818;2023-08-08T14:30:16;1.83;;;1.10;;
5923;SDS011;2987;50.884;14.818;2023-08-08T14:32:43;1.43;;;1.20;;
5923;SDS011;2987;50.884;14.818;2023-08-08T14:35:09;1.20;;;1.20;;
5923;SDS011;2987;50.884;14.818;2023-08-08T14:37:36;1.20;;;1.10;;
5923;SDS011;2987;50.884;14.818;2023-08-08T14:40:02;1.83;;;1.17;;
5923;SDS011;2987;50.884;14.818;2023-08-08T14:44:54;2.23;;;1.20;;
5923;SDS011;2987;50.884;14.818;2023-08-08T14:47:21;2.50;;;1.23;;
5923;SDS011;2987;50.884;14.818;2023-08-08T14:49:47;3.23;;;1.20;;
5923;SDS011;2987;50.884;14.818;2023-08-08T14:52:13;1.57;;;1.43;;
5923;SDS011;2987;50.884;14.818;2023-08-08T14:54:39;1.50;;;1.40;;
5923;SDS011;2987;50.884;14.818;2023-08-08T14:57:05;1.20;;;1.10;;
5923;SDS011;2987;50.884;14.818;2023-08-08T14:59:31;1.67;;;1.40;;
5923;SDS011;2987;50.884;14.818;2023-08-08T15:01:57;2.27;;;1.47;;
5923;SDS011;2987;50.884;14.818;2023-08-08T15:04:23;1.47;;;1.37;;
5923;SDS011;2987;50.884;14.818;2023-08-08T15:06:49;3.77;;;1.40;;
5923;SDS011;2987;50.884;14.818;2023-08-08T15:09:15;1.73;;;1.30;;
5923;SDS011;2987;50.884;14.818;2023-08-08T15:11:41;1.50;;;1.40;;
5923;SDS011;2987;50.884;14.818;2023-08-08T15:14:07;1.40;;;1.23;;
5923;SDS011;2987;50.884;14.818;2023-08-08T15:16:33;1.53;;;1.43;;